sensor_id;sensor_type;location;lat;lon;timestamp;P1;durP1;ratioP1;P2;durP2;ratioP2
9260;SDS011;4667;42.726;23.252;2023-03-01T00:00:00;3.00;;;2.70;;
9260;SDS011;4667;42.726;23.252;2023-03-01T00:02:26;2.80;;;2.50;;
9260;SDS011;4667;42.726;23.252;2023-03-01T00:04:54;3.37;;;2.53;;
9260;SDS011;4667;42.726;23.252;2023-03-01T00:07:21;2.73;;;2.43;;
9260;SDS011;4667;42.726;23.252;2023-03-01T00:09:47;3.03;;;2.43;;
9260;SDS011;4667;42.726;23.252;2023-03-01T00:12:14;2.30;;;2.10;;
9260;SDS011;4667;42.726;23.252;2023-03-01T00:14:41;2.30;;;2.03;;
9260;SDS011;4667;42.726;23.252;2023-03-01T00:17:07;2.50;;;2.10;;
9260;SDS011;4667;42.726;23.252;2023-03-01T00:19:34;2.70;;;2.50;;
9260;SDS011;4667;42.726;23.252;2023-03-01T00:22:02;2.90;;;2.10;;
9260;SDS011;4667;42.726;23.252;2023-03-01T00:24:28;2.77;;;2.57;;
9260;SDS011;4667;42.726;23.252;2023-03-01T00:26:55;3.07;;;2.40;;
9260;SDS011;4667;42.726;23.252;2023-03-01T00:29:22;2.30;;;2.03;;
9260;SDS011;4667;42.726;23.252;2023-03-01T00:31:48;5.10;;;3.20;;
9260;SDS011;4667;42.726;23.252;2023-03-01T00:34:15;2.70;;;2.43;;
9260;SDS011;4667;42.726;23.252;2023-03-01T00:36:41;2.03;;;1.83;;
9260;SDS011;4667;42.726;23.252;2023-03-01T00:39:10;2.57;;;1.97;;
9260;SDS011;4667;42.726;23.252;2023-03-01T00:41:37;2.60;;;2.13;;
9260;SDS011;4667;42.726;23.252;2023-03-01T00:44:05;2.37;;;1.70;;
9260;SDS011;4667;42.726;23.252;2023-03-01T00:46:31;2.50;;;2.30;;
9260;SDS011;4667;42.726;23.252;2023-03-01T00:48:58;2.07;;;1.87;;
9260;SDS011;4667;42.726;23.252;2023-03-01T00:51:27;2.80;;;2.60;;
9260;SDS011;4667;42.726;23.252;2023-03-01T00:53:54;1.90;;;1.80;;
9260;SDS011;4667;42.726;23.252;2023-03-01T00:56:23;3.23;;;2.20;;
9260;SDS011;4667;42.726;23.252;2023-03-01T00:58:49;3.10;;;1.97;;
9260;SDS011;4667;42.726;23.252;2023-03-01T01:01:17;2.10;;;1.90;;
9260;SDS011;4667;42.726;23.252;2023-03-01T01:03:46;2.47;;;2.10;;
9260;SDS011;4667;42.726;23.252;2023-03-01T01:06:15;3.67;;;2.03;;
9260;SDS011;4667;42.726;23.252;2023-03-01T01:08:42;2.60;;;2.40;;
9260;SDS011;4667;42.726;23.252;2023-03-01T01:11:09;1.77;;;1.67;;
9260;SDS011;4667;42.726;23.252;2023-03-01T01:13:37;1.70;;;1.60;;
9260;SDS011;4667;42.726;23.252;2023-03-01T01:16:04;1.77;;;1.67;;
9260;SDS011;4667;42.726;23.252;2023-03-01T01:18:30;3.77;;;2.20;;
9260;SDS011;4667;42.726;23.252;2023-03-01T01:20:57;1.93;;;1.73;;
9260;SDS011;4667;42.726;23.252;2023-03-01T01:23:23;2.07;;;1.87;;
9260;SDS011;4667;42.726;23.252;2023-03-01T01:25:50;1.97;;;1.87;;
9260;SDS011;4667;42.726;23.252;2023-03-01T01:28:16;1.80;;;1.70;;
9260;SDS011;4667;42.726;23.252;2023-03-01T01:30:44;3.33;;;1.90;;
9260;SDS011;4667;42.726;23.252;2023-03-01T01:33:10;1.70;;;1.60;;
9260;SDS011;4667;42.726;23.252;2023-03-01T01:35:37;3.30;;;2.37;;
9260;SDS011;4667;42.726;23.252;2023-03-01T01:38:03;2.17;;;2.07;;
9260;SDS011;4667;42.726;23.252;2023-03-01T01:40:30;1.93;;;1.83;;
9260;SDS011;4667;42.726;23.252;2023-03-01T01:42:56;2.20;;;1.90;;
9260;SDS011;4667;42.726;23.252;2023-03-01T01:45:27;2.73;;;1.93;;
9260;SDS011;4667;42.726;23.252;2023-03-01T01:47:56;2.13;;;1.90;;
9260;SDS011;4667;42.726;23.252;2023-03-01T01:50:23;2.30;;;1.90;;
9260;SDS011;4667;42.726;23.252;2023-03-01T01:52:50;1.47;;;1.37;;
9260;SDS011;4667;42.726;23.252;2023-03-01T01:55:17;2.20;;;2.00;;
9260;SDS011;4667;42.726;23.252;2023-03-01T01:57:47;2.10;;;1.90;;
9260;SDS011;4667;42.726;23.252;2023-03-01T02:00:16;2.30;;;2.10;;
9260;SDS011;4667;42.726;23.252;2023-03-01T02:02:43;2.20;;;2.00;;
9260;SDS011;4667;42.726;23.252;2023-03-01T02:05:12;1.70;;;1.60;;
9260;SDS011;4667;42.726;23.252;2023-03-01T02:07:41;2.50;;;2.10;;
9260;SDS011;4667;42.726;23.252;2023-03-01T02:10:08;4.43;;;1.80;;
9260;SDS011;4667;42.726;23.252;2023-03-01T02:12:35;1.83;;;1.70;;
9260;SDS011;4667;42.726;23.252;2023-03-01T02:15:02;1.53;;;1.43;;
9260;SDS011;4667;42.726;23.252;2023-03-01T02:17:28;2.27;;;1.77;;
9260;SDS011;4667;42.726;23.252;2023-03-01T02:19:59;1.93;;;1.83;;
9260;SDS011;4667;42.726;23.252;2023-03-01T02:22:30;2.50;;;1.77;;
9260;SDS011;4667;42.726;23.252;2023-03-01T02:25:01;2.37;;;2.03;;
9260;SDS011;4667;42.726;23.252;2023-03-01T02:27:33;2.33;;;2.13;;
9260;SDS011;4667;42.726;23.252;2023-03-01T02:30:05;2.40;;;2.20;;
9260;SDS011;4667;42.726;23.252;2023-03-01T02:32:31;1.93;;;1.83;;
9260;SDS011;4667;42.726;23.252;2023-03-01T02:34:57;2.00;;;1.73;;
9260;SDS011;4667;42.726;23.252;2023-03-01T02:37:24;2.30;;;2.03;;
9260;SDS011;4667;42.726;23.252;2023-03-01T02:39:55;2.53;;;2.33;;
9260;SDS011;4667;42.726;23.252;2023-03-01T02:42:26;2.27;;;2.10;;
9260;SDS011;4667;42.726;23.252;2023-03-01T02:44:54;1.93;;;1.83;;
9260;SDS011;4667;42.726;23.252;2023-03-01T02:47:22;2.20;;;1.90;;
9260;SDS011;4667;42.726;23.252;2023-03-01T02:49:49;2.43;;;1.90;;
9260;SDS011;4667;42.726;23.252;2023-03-01T02:52:19;2.50;;;2.10;;
9260;SDS011;4667;42.726;23.252;2023-03-01T02:54:54;2.27;;;2.07;;
9260;SDS011;4667;42.726;23.252;2023-03-01T02:57:24;2.47;;;2.27;;
9260;SDS011;4667;42.726;23.252;2023-03-01T02:59:53;1.60;;;1.50;;
9260;SDS011;4667;42.726;23.252;2023-03-01T03:02:23;2.17;;;1.93;;
9260;SDS011;4667;42.726;23.252;2023-03-01T03:05:01;1.77;;;1.67;;
9260;SDS011;4667;42.726;23.252;2023-03-01T03:07:31;2.10;;;1.87;;
9260;SDS011;4667;42.726;23.252;2023-03-01T03:09:59;1.97;;;1.67;;
9260;SDS011;4667;42.726;23.252;2023-03-01T03:12:26;1.57;;;1.47;;
9260;SDS011;4667;42.726;23.252;2023-03-01T03:14:52;1.90;;;1.77;;
9260;SDS011;4667;42.726;23.252;2023-03-01T03:17:19;2.03;;;1.60;;
9260;SDS011;4667;42.726;23.252;2023-03-01T03:19:47;1.50;;;1.40;;
9260;SDS011;4667;42.726;23.252;2023-03-01T03:22:14;1.70;;;1.60;;
9260;SDS011;4667;42.726;23.252;2023-03-01T03:24:41;2.60;;;2.00;;
9260;SDS011;4667;42.726;23.252;2023-03-01T03:27:08;1.40;;;1.30;;
9260;SDS011;4667;42.726;23.252;2023-03-01T03:29:34;1.60;;;1.50;;
9260;SDS011;4667;42.726;23.252;2023-03-01T03:32:01;2.23;;;1.80;;
9260;SDS011;4667;42.726;23.252;2023-03-01T03:34:28;1.63;;;1.53;;
9260;SDS011;4667;42.726;23.252;2023-03-01T03:36:56;1.97;;;1.83;;
9260;SDS011;4667;42.726;23.252;2023-03-01T03:39:24;2.60;;;2.40;;
9260;SDS011;4667;42.726;23.252;2023-03-01T03:41:52;2.17;;;1.97;;
9260;SDS011;4667;42.726;23.252;2023-03-01T03:44:19;2.43;;;2.00;;
9260;SDS011;4667;42.726;23.252;2023-03-01T03:46:46;2.50;;;2.30;;
9260;SDS011;4667;42.726;23.252;2023-03-01T03:49:13;1.80;;;1.70;;
9260;SDS011;4667;42.726;23.252;2023-03-01T03:54:25;2.00;;;1.90;;
9260;SDS011;4667;42.726;23.252;2023-03-01T03:56:52;1.87;;;1.77;;
9260;SDS011;4667;42.726;23.252;2023-03-01T03:59:19;2.70;;;1.97;;
9260;SDS011;4667;42.726;23.252;2023-03-01T04:01:45;2.00;;;1.90;;
9260;SDS011;4667;42.726;23.252;2023-03-01T04:04:12;2.10;;;1.93;;
9260;SDS011;4667;42.726;23.252;2023-03-01T04:06:39;1.87;;;1.73;;
9260;SDS011;4667;42.726;23.252;2023-03-01T04:09:07;1.47;;;1.37;;
9260;SDS011;4667;42.726;23.252;2023-03-01T04:11:33;1.10;;;1.10;;
9260;SDS011;4667;42.726;23.252;2023-03-01T04:14:00;1.30;;;1.20;;
9260;SDS011;4667;42.726;23.252;2023-03-01T04:16:29;1.23;;;1.17;;
9260;SDS011;4667;42.726;23.252;2023-03-01T04:18:56;1.60;;;1.50;;
9260;SDS011;4667;42.726;23.252;2023-03-01T04:21:24;1.50;;;1.40;;
9260;SDS011;4667;42.726;23.252;2023-03-01T04:23:51;1.30;;;1.20;;
9260;SDS011;4667;42.726;23.252;2023-03-01T04:26:20;1.90;;;1.80;;
9260;SDS011;4667;42.726;23.252;2023-03-01T04:28:49;2.37;;;1.97;;
9260;SDS011;4667;42.726;23.252;2023-03-01T04:31:17;1.27;;;1.23;;
9260;SDS011;4667;42.726;23.252;2023-03-01T04:33:47;1.50;;;1.40;;
9260;SDS011;4667;42.726;23.252;2023-03-01T04:36:16;1.50;;;1.40;;
9260;SDS011;4667;42.726;23.252;2023-03-01T04:38:44;1.67;;;1.50;;
9260;SDS011;4667;42.726;23.252;2023-03-01T04:41:13;1.70;;;1.60;;
9260;SDS011;4667;42.726;23.252;2023-03-01T04:43:43;2.10;;;1.90;;
9260;SDS011;4667;42.726;23.252;2023-03-01T04:46:11;1.53;;;1.43;;
9260;SDS011;4667;42.726;23.252;2023-03-01T04:48:40;1.80;;;1.53;;
9260;SDS011;4667;42.726;23.252;2023-03-01T04:51:14;1.60;;;1.50;;
9260;SDS011;4667;42.726;23.252;2023-03-01T04:53:41;2.17;;;1.97;;
9260;SDS011;4667;42.726;23.252;2023-03-01T04:56:10;2.57;;;1.87;;
9260;SDS011;4667;42.726;23.252;2023-03-01T04:58:38;1.70;;;1.60;;
9260;SDS011;4667;42.726;23.252;2023-03-01T05:01:10;1.53;;;1.43;;
9260;SDS011;4667;42.726;23.252;2023-03-01T05:03:40;1.40;;;1.30;;
9260;SDS011;4667;42.726;23.252;2023-03-01T05:06:08;1.37;;;1.27;;
9260;SDS011;4667;42.726;23.252;2023-03-01T05:08:34;1.50;;;1.40;;
9260;SDS011;4667;42.726;23.252;2023-03-01T05:11:03;1.30;;;1.20;;
9260;SDS011;4667;42.726;23.252;2023-03-01T05:13:29;1.30;;;1.20;;
9260;SDS011;4667;42.726;23.252;2023-03-01T05:15:57;1.53;;;1.43;;
9260;SDS011;4667;42.726;23.252;2023-03-01T05:18:25;1.67;;;1.57;;
9260;SDS011;4667;42.726;23.252;2023-03-01T05:20:53;3.03;;;1.27;;
9260;SDS011;4667;42.726;23.252;2023-03-01T05:23:23;1.83;;;1.73;;
9260;SDS011;4667;42.726;23.252;2023-03-01T05:25:50;1.40;;;1.30;;
9260;SDS011;4667;42.726;23.252;2023-03-01T05:28:17;1.77;;;1.47;;
9260;SDS011;4667;42.726;23.252;2023-03-01T05:30:45;2.03;;;1.80;;
9260;SDS011;4667;42.726;23.252;2023-03-01T05:33:13;1.70;;;1.60;;
9260;SDS011;4667;42.726;23.252;2023-03-01T05:35:41;1.77;;;1.67;;
9260;SDS011;4667;42.726;23.252;2023-03-01T05:38:09;1.47;;;1.33;;
9260;SDS011;4667;42.726;23.252;2023-03-01T05:40:38;1.90;;;1.80;;
9260;SDS011;4667;42.726;23.252;2023-03-01T05:43:06;2.33;;;2.13;;
9260;SDS011;4667;42.726;23.252;2023-03-01T05:45:33;1.87;;;1.73;;
9260;SDS011;4667;42.726;23.252;2023-03-01T05:47:59;2.63;;;1.73;;
9260;SDS011;4667;42.726;23.252;2023-03-01T05:50:27;2.50;;;2.30;;
9260;SDS011;4667;42.726;23.252;2023-03-01T05:53:00;2.60;;;2.40;;
9260;SDS011;4667;42.726;23.252;2023-03-01T05:55:29;2.17;;;1.97;;
9260;SDS011;4667;42.726;23.252;2023-03-01T05:57:57;3.03;;;2.53;;
9260;SDS011;4667;42.726;23.252;2023-03-01T06:00:24;3.27;;;2.67;;
9260;SDS011;4667;42.726;23.252;2023-03-01T06:02:53;4.70;;;3.10;;
9260;SDS011;4667;42.726;23.252;2023-03-01T06:05:20;7.03;;;4.23;;
9260;SDS011;4667;42.726;23.252;2023-03-01T06:07:48;4.20;;;3.47;;
9260;SDS011;4667;42.726;23.252;2023-03-01T06:10:17;3.00;;;2.70;;
9260;SDS011;4667;42.726;23.252;2023-03-01T06:12:44;3.87;;;3.50;;
9260;SDS011;4667;42.726;23.252;2023-03-01T06:15:12;4.37;;;3.57;;
9260;SDS011;4667;42.726;23.252;2023-03-01T06:17:40;3.33;;;2.63;;
9260;SDS011;4667;42.726;23.252;2023-03-01T06:20:10;3.67;;;3.33;;
9260;SDS011;4667;42.726;23.252;2023-03-01T06:22:38;3.07;;;2.80;;
9260;SDS011;4667;42.726;23.252;2023-03-01T06:25:06;4.17;;;3.67;;
9260;SDS011;4667;42.726;23.252;2023-03-01T06:27:35;4.17;;;3.70;;
9260;SDS011;4667;42.726;23.252;2023-03-01T06:30:03;10.43;;;3.37;;
9260;SDS011;4667;42.726;23.252;2023-03-01T06:32:31;6.70;;;3.87;;
9260;SDS011;4667;42.726;23.252;2023-03-01T06:34:58;5.97;;;4.03;;
9260;SDS011;4667;42.726;23.252;2023-03-01T06:37:24;3.30;;;3.00;;
9260;SDS011;4667;42.726;23.252;2023-03-01T06:39:51;4.77;;;3.80;;
9260;SDS011;4667;42.726;23.252;2023-03-01T06:42:18;2.77;;;2.47;;
9260;SDS011;4667;42.726;23.252;2023-03-01T06:44:46;3.63;;;2.80;;
9260;SDS011;4667;42.726;23.252;2023-03-01T06:47:13;4.23;;;3.07;;
9260;SDS011;4667;42.726;23.252;2023-03-01T06:49:40;3.17;;;2.87;;
9260;SDS011;4667;42.726;23.252;2023-03-01T06:52:07;5.07;;;3.10;;
9260;SDS011;4667;42.726;23.252;2023-03-01T06:54:34;3.60;;;2.87;;
9260;SDS011;4667;42.726;23.252;2023-03-01T06:57:00;3.07;;;2.73;;
9260;SDS011;4667;42.726;23.252;2023-03-01T06:59:27;3.87;;;3.00;;
9260;SDS011;4667;42.726;23.252;2023-03-01T07:01:58;3.33;;;3.03;;
9260;SDS011;4667;42.726;23.252;2023-03-01T07:04:25;4.10;;;2.43;;
9260;SDS011;4667;42.726;23.252;2023-03-01T07:06:55;3.70;;;2.67;;
9260;SDS011;4667;42.726;23.252;2023-03-01T07:09:24;3.13;;;2.83;;
9260;SDS011;4667;42.726;23.252;2023-03-01T07:11:52;3.20;;;2.50;;
9260;SDS011;4667;42.726;23.252;2023-03-01T07:14:19;6.10;;;3.23;;
9260;SDS011;4667;42.726;23.252;2023-03-01T07:16:49;3.17;;;2.87;;
9260;SDS011;4667;42.726;23.252;2023-03-01T07:22:45;4.37;;;2.97;;
9260;SDS011;4667;42.726;23.252;2023-03-01T07:25:26;2.70;;;2.50;;
9260;SDS011;4667;42.726;23.252;2023-03-01T07:27:53;2.73;;;2.60;;
9260;SDS011;4667;42.726;23.252;2023-03-01T07:30:30;2.30;;;2.07;;
9260;SDS011;4667;42.726;23.252;2023-03-01T07:33:13;2.90;;;2.60;;
9260;SDS011;4667;42.726;23.252;2023-03-01T07:35:58;2.90;;;2.60;;
9260;SDS011;4667;42.726;23.252;2023-03-01T07:57:14;3.53;;;2.43;;
9260;SDS011;4667;42.726;23.252;2023-03-01T07:59:56;2.93;;;2.40;;
9260;SDS011;4667;42.726;23.252;2023-03-01T08:02:23;5.23;;;2.90;;
9260;SDS011;4667;42.726;23.252;2023-03-01T08:04:50;2.80;;;2.27;;
9260;SDS011;4667;42.726;23.252;2023-03-01T08:07:18;6.33;;;2.70;;
9260;SDS011;4667;42.726;23.252;2023-03-01T08:09:44;3.27;;;2.47;;
9260;SDS011;4667;42.726;23.252;2023-03-01T08:12:11;2.20;;;2.00;;
9260;SDS011;4667;42.726;23.252;2023-03-01T08:14:37;2.20;;;2.00;;
9260;SDS011;4667;42.726;23.252;2023-03-01T08:17:04;4.03;;;2.37;;
9260;SDS011;4667;42.726;23.252;2023-03-01T08:19:33;2.53;;;2.33;;
9260;SDS011;4667;42.726;23.252;2023-03-01T08:22:05;3.80;;;2.70;;
9260;SDS011;4667;42.726;23.252;2023-03-01T08:24:33;4.63;;;2.77;;
9260;SDS011;4667;42.726;23.252;2023-03-01T08:27:00;3.23;;;2.43;;
9260;SDS011;4667;42.726;23.252;2023-03-01T08:29:27;2.70;;;2.50;;
9260;SDS011;4667;42.726;23.252;2023-03-01T08:31:54;2.63;;;2.33;;
9260;SDS011;4667;42.726;23.252;2023-03-01T08:34:21;3.70;;;2.17;;
9260;SDS011;4667;42.726;23.252;2023-03-01T08:44:48;2.27;;;2.00;;
9260;SDS011;4667;42.726;23.252;2023-03-01T08:47:14;2.53;;;2.33;;
9260;SDS011;4667;42.726;23.252;2023-03-01T08:49:41;2.70;;;1.80;;
9260;SDS011;4667;42.726;23.252;2023-03-01T08:52:08;3.77;;;2.77;;
9260;SDS011;4667;42.726;23.252;2023-03-01T08:54:36;2.03;;;1.80;;
9260;SDS011;4667;42.726;23.252;2023-03-01T08:57:37;2.60;;;2.40;;
9260;SDS011;4667;42.726;23.252;2023-03-01T09:27:11;3.07;;;2.67;;
9260;SDS011;4667;42.726;23.252;2023-03-01T09:29:52;3.13;;;2.10;;
9260;SDS011;4667;42.726;23.252;2023-03-01T09:32:29;2.53;;;2.33;;
9260;SDS011;4667;42.726;23.252;2023-03-01T09:35:00;2.77;;;2.57;;
9260;SDS011;4667;42.726;23.252;2023-03-01T09:37:44;2.50;;;2.30;;
9260;SDS011;4667;42.726;23.252;2023-03-01T10:05:25;2.13;;;1.63;;
9260;SDS011;4667;42.726;23.252;2023-03-01T10:08:25;1.80;;;1.70;;
9260;SDS011;4667;42.726;23.252;2023-03-01T10:10:54;2.23;;;1.90;;
9260;SDS011;4667;42.726;23.252;2023-03-01T10:13:22;2.20;;;1.67;;
9260;SDS011;4667;42.726;23.252;2023-03-01T10:15:54;1.70;;;1.60;;
9260;SDS011;4667;42.726;23.252;2023-03-01T10:18:23;2.43;;;2.20;;
9260;SDS011;4667;42.726;23.252;2023-03-01T10:20:55;1.57;;;1.47;;
9260;SDS011;4667;42.726;23.252;2023-03-01T10:23:25;1.90;;;1.80;;
9260;SDS011;4667;42.726;23.252;2023-03-01T10:26:08;2.57;;;1.63;;
9260;SDS011;4667;42.726;23.252;2023-03-01T10:28:51;2.53;;;1.97;;
9260;SDS011;4667;42.726;23.252;2023-03-01T10:31:21;2.37;;;1.60;;
9260;SDS011;4667;42.726;23.252;2023-03-01T10:33:53;2.93;;;1.83;;
9260;SDS011;4667;42.726;23.252;2023-03-01T10:36:22;2.03;;;1.83;;
9260;SDS011;4667;42.726;23.252;2023-03-01T10:38:51;4.53;;;3.33;;
9260;SDS011;4667;42.726;23.252;2023-03-01T10:41:23;3.30;;;2.13;;
9260;SDS011;4667;42.726;23.252;2023-03-01T10:43:51;1.57;;;1.40;;
9260;SDS011;4667;42.726;23.252;2023-03-01T10:46:27;1.93;;;1.53;;
9260;SDS011;4667;42.726;23.252;2023-03-01T10:49:06;2.07;;;1.77;;
9260;SDS011;4667;42.726;23.252;2023-03-01T10:51:40;1.93;;;1.57;;
9260;SDS011;4667;42.726;23.252;2023-03-01T10:54:14;2.40;;;1.90;;
9260;SDS011;4667;42.726;23.252;2023-03-01T10:56:47;2.77;;;2.03;;
9260;SDS011;4667;42.726;23.252;2023-03-01T10:59:20;4.37;;;1.77;;
9260;SDS011;4667;42.726;23.252;2023-03-01T11:02:01;3.27;;;1.80;;
9260;SDS011;4667;42.726;23.252;2023-03-01T11:04:30;2.63;;;2.03;;
9260;SDS011;4667;42.726;23.252;2023-03-01T11:06:59;3.03;;;2.27;;
9260;SDS011;4667;42.726;23.252;2023-03-01T11:09:30;2.33;;;1.70;;
9260;SDS011;4667;42.726;23.252;2023-03-01T11:12:03;2.10;;;1.47;;
9260;SDS011;4667;42.726;23.252;2023-03-01T11:15:15;1.87;;;1.77;;
9260;SDS011;4667;42.726;23.252;2023-03-01T11:23:35;1.70;;;1.60;;
9260;SDS011;4667;42.726;23.252;2023-03-01T11:26:27;2.60;;;1.77;;
9260;SDS011;4667;42.726;23.252;2023-03-01T11:29:12;2.97;;;1.40;;
9260;SDS011;4667;42.726;23.252;2023-03-01T11:32:00;2.07;;;1.80;;
9260;SDS011;4667;42.726;23.252;2023-03-01T11:34:47;2.27;;;1.20;;
9260;SDS011;4667;42.726;23.252;2023-03-01T11:37:32;2.00;;;1.60;;
9260;SDS011;4667;42.726;23.252;2023-03-01T11:49:55;1.70;;;1.60;;
9260;SDS011;4667;42.726;23.252;2023-03-01T11:52:30;4.10;;;1.80;;
9260;SDS011;4667;42.726;23.252;2023-03-01T11:55:26;2.47;;;2.10;;
9260;SDS011;4667;42.726;23.252;2023-03-01T11:58:27;2.43;;;2.23;;
9260;SDS011;4667;42.726;23.252;2023-03-01T12:01:39;2.63;;;2.10;;
9260;SDS011;4667;42.726;23.252;2023-03-01T12:04:48;3.53;;;1.70;;
9260;SDS011;4667;42.726;23.252;2023-03-01T12:07:35;4.50;;;1.53;;
9260;SDS011;4667;42.726;23.252;2023-03-01T12:10:23;2.60;;;1.80;;
9260;SDS011;4667;42.726;23.252;2023-03-01T12:13:05;3.17;;;2.27;;
9260;SDS011;4667;42.726;23.252;2023-03-01T12:15:39;2.73;;;1.70;;
9260;SDS011;4667;42.726;23.252;2023-03-01T12:29:50;5.83;;;1.77;;
9260;SDS011;4667;42.726;23.252;2023-03-01T12:35:29;3.13;;;1.90;;
9260;SDS011;4667;42.726;23.252;2023-03-01T12:38:01;1.90;;;1.70;;
9260;SDS011;4667;42.726;23.252;2023-03-01T12:40:40;2.23;;;1.80;;
9260;SDS011;4667;42.726;23.252;2023-03-01T12:43:22;2.43;;;2.23;;
9260;SDS011;4667;42.726;23.252;2023-03-01T13:58:16;2.47;;;2.27;;
9260;SDS011;4667;42.726;23.252;2023-03-01T15:32:25;2.90;;;2.57;;
9260;SDS011;4667;42.726;23.252;2023-03-01T15:34:51;4.37;;;2.40;;
9260;SDS011;4667;42.726;23.252;2023-03-01T15:39:59;2.57;;;2.13;;
9260;SDS011;4667;42.726;23.252;2023-03-01T15:42:36;5.67;;;3.50;;
9260;SDS011;4667;42.726;23.252;2023-03-01T15:45:09;4.90;;;2.87;;
9260;SDS011;4667;42.726;23.252;2023-03-01T15:47:38;3.17;;;2.90;;
9260;SDS011;4667;42.726;23.252;2023-03-01T15:50:11;3.23;;;2.60;;
9260;SDS011;4667;42.726;23.252;2023-03-01T15:52:42;3.80;;;2.93;;
9260;SDS011;4667;42.726;23.252;2023-03-01T15:55:14;5.97;;;2.50;;
9260;SDS011;4667;42.726;23.252;2023-03-01T15:57:42;3.57;;;2.90;;
9260;SDS011;4667;42.726;23.252;2023-03-01T16:00:09;6.13;;;2.93;;
9260;SDS011;4667;42.726;23.252;2023-03-01T16:02:40;4.70;;;2.70;;
9260;SDS011;4667;42.726;23.252;2023-03-01T16:05:10;3.73;;;2.83;;
9260;SDS011;4667;42.726;23.252;2023-03-01T16:07:43;6.33;;;2.73;;
9260;SDS011;4667;42.726;23.252;2023-03-01T16:10:10;7.60;;;2.90;;
9260;SDS011;4667;42.726;23.252;2023-03-01T16:12:37;4.00;;;2.70;;
9260;SDS011;4667;42.726;23.252;2023-03-01T16:15:07;7.23;;;3.90;;
9260;SDS011;4667;42.726;23.252;2023-03-01T16:17:40;3.13;;;2.33;;
9260;SDS011;4667;42.726;23.252;2023-03-01T16:20:07;2.80;;;2.50;;
9260;SDS011;4667;42.726;23.252;2023-03-01T16:22:35;5.00;;;3.00;;
9260;SDS011;4667;42.726;23.252;2023-03-01T16:25:01;2.73;;;2.20;;
9260;SDS011;4667;42.726;23.252;2023-03-01T16:27:28;7.43;;;3.00;;
9260;SDS011;4667;42.726;23.252;2023-03-01T16:29:55;2.43;;;2.23;;
9260;SDS011;4667;42.726;23.252;2023-03-01T16:32:21;3.43;;;3.00;;
9260;SDS011;4667;42.726;23.252;2023-03-01T16:34:49;3.63;;;2.37;;
9260;SDS011;4667;42.726;23.252;2023-03-01T16:37:16;3.07;;;2.37;;
9260;SDS011;4667;42.726;23.252;2023-03-01T16:39:44;3.23;;;2.53;;
9260;SDS011;4667;42.726;23.252;2023-03-01T16:42:10;5.13;;;3.57;;
9260;SDS011;4667;42.726;23.252;2023-03-01T16:44:37;2.93;;;2.60;;
9260;SDS011;4667;42.726;23.252;2023-03-01T16:47:03;3.67;;;2.97;;
9260;SDS011;4667;42.726;23.252;2023-03-01T16:49:30;4.27;;;3.60;;
9260;SDS011;4667;42.726;23.252;2023-03-01T16:51:58;3.00;;;2.70;;
9260;SDS011;4667;42.726;23.252;2023-03-01T16:54:27;4.30;;;3.13;;
9260;SDS011;4667;42.726;23.252;2023-03-01T16:56:53;6.10;;;3.57;;
9260;SDS011;4667;42.726;23.252;2023-03-01T16:59:21;5.27;;;3.67;;
9260;SDS011;4667;42.726;23.252;2023-03-01T17:01:53;4.03;;;3.73;;
9260;SDS011;4667;42.726;23.252;2023-03-01T17:04:52;8.63;;;4.63;;
9260;SDS011;4667;42.726;23.252;2023-03-01T17:10:40;9.83;;;3.50;;
9260;SDS011;4667;42.726;23.252;2023-03-01T17:13:09;3.97;;;2.93;;
9260;SDS011;4667;42.726;23.252;2023-03-01T17:15:40;4.20;;;3.50;;
9260;SDS011;4667;42.726;23.252;2023-03-01T17:18:11;6.03;;;4.10;;
9260;SDS011;4667;42.726;23.252;2023-03-01T17:20:51;5.33;;;3.17;;
9260;SDS011;4667;42.726;23.252;2023-03-01T17:34:16;4.43;;;2.57;;
9260;SDS011;4667;42.726;23.252;2023-03-01T17:36:42;5.23;;;3.60;;
9260;SDS011;4667;42.726;23.252;2023-03-01T17:39:12;8.37;;;3.87;;
9260;SDS011;4667;42.726;23.252;2023-03-01T17:41:40;5.17;;;4.37;;
9260;SDS011;4667;42.726;23.252;2023-03-01T17:44:10;6.63;;;3.90;;
9260;SDS011;4667;42.726;23.252;2023-03-01T17:46:40;6.10;;;3.67;;
9260;SDS011;4667;42.726;23.252;2023-03-01T17:49:08;6.57;;;4.73;;
9260;SDS011;4667;42.726;23.252;2023-03-01T17:51:37;7.47;;;4.47;;
9260;SDS011;4667;42.726;23.252;2023-03-01T17:54:12;7.63;;;5.30;;
9260;SDS011;4667;42.726;23.252;2023-03-01T17:56:40;4.20;;;3.60;;
9260;SDS011;4667;42.726;23.252;2023-03-01T17:59:28;7.00;;;3.97;;
9260;SDS011;4667;42.726;23.252;2023-03-01T18:01:59;6.87;;;3.93;;
9260;SDS011;4667;42.726;23.252;2023-03-01T18:04:33;4.93;;;4.43;;
9260;SDS011;4667;42.726;23.252;2023-03-01T18:07:09;6.47;;;4.87;;
9260;SDS011;4667;42.726;23.252;2023-03-01T18:09:36;10.30;;;5.47;;
9260;SDS011;4667;42.726;23.252;2023-03-01T18:12:03;8.13;;;5.53;;
9260;SDS011;4667;42.726;23.252;2023-03-01T18:14:30;10.43;;;7.03;;
9260;SDS011;4667;42.726;23.252;2023-03-01T18:17:00;8.93;;;6.30;;
9260;SDS011;4667;42.726;23.252;2023-03-01T18:19:36;9.80;;;5.13;;
9260;SDS011;4667;42.726;23.252;2023-03-01T18:22:08;10.83;;;6.37;;
9260;SDS011;4667;42.726;23.252;2023-03-01T18:24:38;9.87;;;4.77;;
9260;SDS011;4667;42.726;23.252;2023-03-01T18:27:05;9.57;;;5.33;;
9260;SDS011;4667;42.726;23.252;2023-03-01T18:29:34;7.43;;;5.10;;
9260;SDS011;4667;42.726;23.252;2023-03-01T18:32:01;5.90;;;4.20;;
9260;SDS011;4667;42.726;23.252;2023-03-01T18:34:28;5.90;;;4.87;;
9260;SDS011;4667;42.726;23.252;2023-03-01T18:37:00;7.83;;;5.07;;
9260;SDS011;4667;42.726;23.252;2023-03-01T18:39:28;10.17;;;5.10;;
9260;SDS011;4667;42.726;23.252;2023-03-01T18:41:57;7.43;;;4.27;;
9260;SDS011;4667;42.726;23.252;2023-03-01T18:44:24;14.83;;;5.93;;
9260;SDS011;4667;42.726;23.252;2023-03-01T18:46:51;8.23;;;5.47;;
9260;SDS011;4667;42.726;23.252;2023-03-01T18:49:22;10.30;;;6.83;;
9260;SDS011;4667;42.726;23.252;2023-03-01T18:51:49;9.20;;;6.23;;
9260;SDS011;4667;42.726;23.252;2023-03-01T18:54:16;9.87;;;6.50;;
9260;SDS011;4667;42.726;23.252;2023-03-01T18:56:43;10.50;;;6.73;;
9260;SDS011;4667;42.726;23.252;2023-03-01T18:59:11;8.20;;;5.77;;
9260;SDS011;4667;42.726;23.252;2023-03-01T19:01:38;11.77;;;5.80;;
9260;SDS011;4667;42.726;23.252;2023-03-01T19:04:04;9.70;;;7.03;;
9260;SDS011;4667;42.726;23.252;2023-03-01T19:06:33;9.20;;;5.80;;
9260;SDS011;4667;42.726;23.252;2023-03-01T19:09:00;12.13;;;7.10;;
9260;SDS011;4667;42.726;23.252;2023-03-01T19:11:26;9.17;;;6.07;;
9260;SDS011;4667;42.726;23.252;2023-03-01T19:13:54;11.70;;;6.43;;
9260;SDS011;4667;42.726;23.252;2023-03-01T19:16:24;8.10;;;5.67;;
9260;SDS011;4667;42.726;23.252;2023-03-01T19:18:58;7.27;;;5.77;;
9260;SDS011;4667;42.726;23.252;2023-03-01T19:21:26;13.23;;;6.97;;
9260;SDS011;4667;42.726;23.252;2023-03-01T19:23:53;10.80;;;6.63;;
9260;SDS011;4667;42.726;23.252;2023-03-01T19:26:27;10.23;;;6.63;;
9260;SDS011;4667;42.726;23.252;2023-03-01T19:29:08;9.90;;;6.17;;
9260;SDS011;4667;42.726;23.252;2023-03-01T19:31:45;10.67;;;6.47;;
9260;SDS011;4667;42.726;23.252;2023-03-01T19:34:12;8.10;;;5.07;;
9260;SDS011;4667;42.726;23.252;2023-03-01T19:36:39;8.90;;;5.70;;
9260;SDS011;4667;42.726;23.252;2023-03-01T19:39:07;6.93;;;5.17;;
9260;SDS011;4667;42.726;23.252;2023-03-01T19:41:37;7.57;;;4.70;;
9260;SDS011;4667;42.726;23.252;2023-03-01T19:44:07;8.60;;;6.03;;
9260;SDS011;4667;42.726;23.252;2023-03-01T19:46:35;6.93;;;5.00;;
9260;SDS011;4667;42.726;23.252;2023-03-01T19:49:03;9.27;;;5.20;;
